sensor_id;sensor_type;location;lat;lon;timestamp;P1;durP1;ratioP1;P2;durP2;ratioP2
66437;SDS011;54537;47.972;11.662;2022-07-17T00:01:48;5.40;;;2.67;;
66437;SDS011;54537;47.972;11.662;2022-07-17T00:04:14;4.47;;;2.42;;
66437;SDS011;54537;47.972;11.662;2022-07-17T00:06:40;5.78;;;3.15;;
66437;SDS011;54537;47.972;11.662;2022-07-17T00:09:08;6.47;;;2.40;;
66437;SDS011;54537;47.972;11.662;2022-07-17T00:11:34;7.35;;;3.00;;
66437;SDS011;54537;47.972;11.662;2022-07-17T00:14:01;6.00;;;3.00;;
66437;SDS011;54537;47.972;11.662;2022-07-17T00:16:27;4.82;;;3.08;;
66437;SDS011;54537;47.972;11.662;2022-07-17T00:18:53;9.07;;;3.00;;
66437;SDS011;54537;47.972;11.662;2022-07-17T00:21:20;8.18;;;3.17;;
66437;SDS011;54537;47.972;11.662;2022-07-17T00:23:46;6.47;;;3.42;;
66437;SDS011;54537;47.972;11.662;2022-07-17T00:26:14;5.75;;;3.42;;
66437;SDS011;54537;47.972;11.662;2022-07-17T00:28:40;5.72;;;3.20;;
66437;SDS011;54537;47.972;11.662;2022-07-17T00:31:07;6.18;;;3.30;;
66437;SDS011;54537;47.972;11.662;2022-07-17T00:33:33;7.25;;;3.30;;
66437;SDS011;54537;47.972;11.662;2022-07-17T00:35:59;6.00;;;3.30;;
66437;SDS011;54537;47.972;11.662;2022-07-17T00:38:26;5.70;;;3.40;;
66437;SDS011;54537;47.972;11.662;2022-07-17T00:40:53;7.30;;;2.70;;
66437;SDS011;54537;47.972;11.662;2022-07-17T00:43:20;6.70;;;3.33;;
66437;SDS011;54537;47.972;11.662;2022-07-17T00:45:53;7.60;;;3.53;;
66437;SDS011;54537;47.972;11.662;2022-07-17T00:48:19;7.28;;;2.92;;
66437;SDS011;54537;47.972;11.662;2022-07-17T00:50:46;4.90;;;2.83;;
66437;SDS011;54537;47.972;11.662;2022-07-17T00:53:12;6.03;;;3.03;;
66437;SDS011;54537;47.972;11.662;2022-07-17T00:55:39;5.10;;;3.03;;
66437;SDS011;54537;47.972;11.662;2022-07-17T00:58:06;5.97;;;2.92;;
66437;SDS011;54537;47.972;11.662;2022-07-17T01:00:35;8.55;;;3.25;;
66437;SDS011;54537;47.972;11.662;2022-07-17T01:03:01;6.82;;;3.25;;
66437;SDS011;54537;47.972;11.662;2022-07-17T01:05:29;6.32;;;3.35;;
66437;SDS011;54537;47.972;11.662;2022-07-17T01:07:55;6.97;;;3.03;;
66437;SDS011;54537;47.972;11.662;2022-07-17T01:10:21;7.47;;;3.60;;
66437;SDS011;54537;47.972;11.662;2022-07-17T01:12:48;7.40;;;2.60;;
66437;SDS011;54537;47.972;11.662;2022-07-17T01:15:14;6.05;;;2.90;;
66437;SDS011;54537;47.972;11.662;2022-07-17T01:17:42;8.38;;;3.05;;
66437;SDS011;54537;47.972;11.662;2022-07-17T01:20:10;4.93;;;3.10;;
66437;SDS011;54537;47.972;11.662;2022-07-17T01:22:41;7.43;;;3.42;;
66437;SDS011;54537;47.972;11.662;2022-07-17T01:25:08;4.97;;;3.30;;
66437;SDS011;54537;47.972;11.662;2022-07-17T01:27:34;7.50;;;3.65;;
66437;SDS011;54537;47.972;11.662;2022-07-17T01:30:01;6.97;;;3.50;;
66437;SDS011;54537;47.972;11.662;2022-07-17T01:32:30;6.68;;;3.17;;
66437;SDS011;54537;47.972;11.662;2022-07-17T01:34:57;8.70;;;3.30;;
66437;SDS011;54537;47.972;11.662;2022-07-17T01:37:23;5.28;;;3.05;;
66437;SDS011;54537;47.972;11.662;2022-07-17T01:39:51;6.25;;;3.38;;
66437;SDS011;54537;47.972;11.662;2022-07-17T01:42:20;5.60;;;2.90;;
66437;SDS011;54537;47.972;11.662;2022-07-17T01:44:46;7.43;;;3.50;;
66437;SDS011;54537;47.972;11.662;2022-07-17T01:47:13;7.80;;;3.50;;
66437;SDS011;54537;47.972;11.662;2022-07-17T01:49:42;5.93;;;3.60;;
66437;SDS011;54537;47.972;11.662;2022-07-17T01:52:08;4.93;;;2.80;;
66437;SDS011;54537;47.972;11.662;2022-07-17T01:54:35;5.70;;;2.80;;
66437;SDS011;54537;47.972;11.662;2022-07-17T01:57:02;5.68;;;2.92;;
66437;SDS011;54537;47.972;11.662;2022-07-17T01:59:29;6.75;;;3.20;;
66437;SDS011;54537;47.972;11.662;2022-07-17T02:01:55;6.55;;;2.45;;
66437;SDS011;54537;47.972;11.662;2022-07-17T02:04:21;7.30;;;3.40;;
66437;SDS011;54537;47.972;11.662;2022-07-17T02:06:48;4.60;;;2.80;;
66437;SDS011;54537;47.972;11.662;2022-07-17T02:09:14;6.20;;;4.07;;
66437;SDS011;54537;47.972;11.662;2022-07-17T02:11:41;5.97;;;2.92;;
66437;SDS011;54537;47.972;11.662;2022-07-17T02:14:08;7.20;;;3.67;;
66437;SDS011;54537;47.972;11.662;2022-07-17T02:16:35;5.07;;;3.10;;
66437;SDS011;54537;47.972;11.662;2022-07-17T02:19:01;6.30;;;3.60;;
66437;SDS011;54537;47.972;11.662;2022-07-17T02:21:28;5.82;;;3.08;;
66437;SDS011;54537;47.972;11.662;2022-07-17T02:23:54;6.70;;;3.35;;
66437;SDS011;54537;47.972;11.662;2022-07-17T02:26:21;10.00;;;3.50;;
66437;SDS011;54537;47.972;11.662;2022-07-17T02:28:47;7.20;;;3.80;;
66437;SDS011;54537;47.972;11.662;2022-07-17T02:31:14;9.40;;;3.90;;
66437;SDS011;54537;47.972;11.662;2022-07-17T02:33:41;7.72;;;3.40;;
66437;SDS011;54537;47.972;11.662;2022-07-17T02:36:07;6.47;;;3.97;;
66437;SDS011;54537;47.972;11.662;2022-07-17T02:38:33;8.93;;;3.65;;
66437;SDS011;54537;47.972;11.662;2022-07-17T02:41:00;5.85;;;3.22;;
66437;SDS011;54537;47.972;11.662;2022-07-17T02:43:26;10.90;;;3.67;;
66437;SDS011;54537;47.972;11.662;2022-07-17T02:45:52;5.35;;;3.17;;
66437;SDS011;54537;47.972;11.662;2022-07-17T02:48:20;5.85;;;3.10;;
66437;SDS011;54537;47.972;11.662;2022-07-17T02:50:46;5.25;;;2.92;;
66437;SDS011;54537;47.972;11.662;2022-07-17T02:53:13;7.03;;;3.30;;
66437;SDS011;54537;47.972;11.662;2022-07-17T02:55:39;8.10;;;3.63;;
66437;SDS011;54537;47.972;11.662;2022-07-17T02:58:05;7.15;;;3.30;;
66437;SDS011;54537;47.972;11.662;2022-07-17T03:00:32;8.13;;;3.58;;
66437;SDS011;54537;47.972;11.662;2022-07-17T03:02:58;5.45;;;2.80;;
66437;SDS011;54537;47.972;11.662;2022-07-17T03:05:26;6.43;;;3.50;;
66437;SDS011;54537;47.972;11.662;2022-07-17T03:07:52;6.30;;;3.65;;
66437;SDS011;54537;47.972;11.662;2022-07-17T03:10:19;6.15;;;3.38;;
66437;SDS011;54537;47.972;11.662;2022-07-17T03:12:45;8.70;;;3.70;;
66437;SDS011;54537;47.972;11.662;2022-07-17T03:15:11;6.00;;;3.50;;
66437;SDS011;54537;47.972;11.662;2022-07-17T03:17:38;5.60;;;3.47;;
66437;SDS011;54537;47.972;11.662;2022-07-17T03:20:05;6.78;;;3.10;;
66437;SDS011;54537;47.972;11.662;2022-07-17T03:22:33;6.10;;;3.17;;
66437;SDS011;54537;47.972;11.662;2022-07-17T03:24:59;5.38;;;3.20;;
66437;SDS011;54537;47.972;11.662;2022-07-17T03:27:25;7.30;;;3.75;;
66437;SDS011;54537;47.972;11.662;2022-07-17T03:29:51;5.47;;;3.03;;
66437;SDS011;54537;47.972;11.662;2022-07-17T03:32:18;9.88;;;4.18;;
66437;SDS011;54537;47.972;11.662;2022-07-17T03:34:44;6.80;;;3.20;;
66437;SDS011;54537;47.972;11.662;2022-07-17T03:37:11;6.35;;;3.17;;
66437;SDS011;54537;47.972;11.662;2022-07-17T03:39:38;6.68;;;3.78;;
66437;SDS011;54537;47.972;11.662;2022-07-17T03:42:05;5.38;;;2.92;;
66437;SDS011;54537;47.972;11.662;2022-07-17T03:44:31;5.60;;;3.05;;
66437;SDS011;54537;47.972;11.662;2022-07-17T03:46:57;10.15;;;3.85;;
66437;SDS011;54537;47.972;11.662;2022-07-17T03:49:24;6.65;;;3.10;;
66437;SDS011;54537;47.972;11.662;2022-07-17T03:51:50;6.50;;;3.30;;
66437;SDS011;54537;47.972;11.662;2022-07-17T03:54:16;6.47;;;3.45;;
66437;SDS011;54537;47.972;11.662;2022-07-17T03:56:44;6.32;;;3.20;;
66437;SDS011;54537;47.972;11.662;2022-07-17T03:59:10;8.23;;;3.50;;
66437;SDS011;54537;47.972;11.662;2022-07-17T04:01:37;6.65;;;3.47;;
66437;SDS011;54537;47.972;11.662;2022-07-17T04:04:03;7.05;;;3.55;;
66437;SDS011;54537;47.972;11.662;2022-07-17T04:06:30;5.55;;;3.50;;
66437;SDS011;54537;47.972;11.662;2022-07-17T04:08:56;8.68;;;3.50;;
66437;SDS011;54537;47.972;11.662;2022-07-17T04:11:23;6.68;;;3.70;;
66437;SDS011;54537;47.972;11.662;2022-07-17T04:13:51;6.95;;;2.80;;
66437;SDS011;54537;47.972;11.662;2022-07-17T04:16:17;7.53;;;3.20;;
66437;SDS011;54537;47.972;11.662;2022-07-17T04:18:43;7.32;;;2.80;;
66437;SDS011;54537;47.972;11.662;2022-07-17T04:21:10;7.28;;;2.97;;
66437;SDS011;54537;47.972;11.662;2022-07-17T04:23:36;8.27;;;3.60;;
66437;SDS011;54537;47.972;11.662;2022-07-17T04:26:03;5.15;;;2.97;;
66437;SDS011;54537;47.972;11.662;2022-07-17T04:28:29;6.57;;;2.70;;
66437;SDS011;54537;47.972;11.662;2022-07-17T04:30:57;8.10;;;2.90;;
66437;SDS011;54537;47.972;11.662;2022-07-17T04:33:23;5.57;;;2.95;;
66437;SDS011;54537;47.972;11.662;2022-07-17T04:35:49;5.95;;;3.03;;
66437;SDS011;54537;47.972;11.662;2022-07-17T04:38:16;6.63;;;3.17;;
66437;SDS011;54537;47.972;11.662;2022-07-17T04:40:42;5.07;;;3.22;;
66437;SDS011;54537;47.972;11.662;2022-07-17T04:43:08;8.50;;;3.30;;
66437;SDS011;54537;47.972;11.662;2022-07-17T04:45:34;5.45;;;2.90;;
66437;SDS011;54537;47.972;11.662;2022-07-17T04:48:02;6.13;;;2.80;;
66437;SDS011;54537;47.972;11.662;2022-07-17T04:50:29;5.13;;;3.00;;
66437;SDS011;54537;47.972;11.662;2022-07-17T04:52:55;5.30;;;2.70;;
66437;SDS011;54537;47.972;11.662;2022-07-17T04:55:22;7.32;;;3.65;;
66437;SDS011;54537;47.972;11.662;2022-07-17T04:57:48;5.00;;;3.15;;
66437;SDS011;54537;47.972;11.662;2022-07-17T05:00:15;5.90;;;3.22;;
66437;SDS011;54537;47.972;11.662;2022-07-17T05:02:41;4.05;;;2.85;;
66437;SDS011;54537;47.972;11.662;2022-07-17T05:05:09;4.35;;;2.83;;
66437;SDS011;54537;47.972;11.662;2022-07-17T05:07:35;6.35;;;3.15;;
66437;SDS011;54537;47.972;11.662;2022-07-17T05:10:02;6.78;;;2.92;;
66437;SDS011;54537;47.972;11.662;2022-07-17T05:12:29;8.07;;;3.33;;
66437;SDS011;54537;47.972;11.662;2022-07-17T05:14:55;6.25;;;3.17;;
66437;SDS011;54537;47.972;11.662;2022-07-17T05:17:22;7.75;;;3.40;;
66437;SDS011;54537;47.972;11.662;2022-07-17T05:19:48;6.35;;;3.13;;
66437;SDS011;54537;47.972;11.662;2022-07-17T05:22:16;5.30;;;2.90;;
66437;SDS011;54537;47.972;11.662;2022-07-17T05:24:42;6.72;;;3.15;;
66437;SDS011;54537;47.972;11.662;2022-07-17T05:27:08;8.90;;;3.60;;
66437;SDS011;54537;47.972;11.662;2022-07-17T05:29:34;6.38;;;3.03;;
66437;SDS011;54537;47.972;11.662;2022-07-17T05:32:01;5.18;;;2.72;;
66437;SDS011;54537;47.972;11.662;2022-07-17T05:34:27;7.28;;;3.20;;
66437;SDS011;54537;47.972;11.662;2022-07-17T05:36:53;4.43;;;2.63;;
66437;SDS011;54537;47.972;11.662;2022-07-17T05:39:21;4.80;;;3.20;;
66437;SDS011;54537;47.972;11.662;2022-07-17T05:41:47;6.35;;;2.90;;
66437;SDS011;54537;47.972;11.662;2022-07-17T05:44:14;6.72;;;2.80;;
66437;SDS011;54537;47.972;11.662;2022-07-17T05:46:40;7.28;;;3.28;;
66437;SDS011;54537;47.972;11.662;2022-07-17T05:49:06;5.40;;;2.88;;
66437;SDS011;54537;47.972;11.662;2022-07-17T05:51:33;4.82;;;2.90;;
66437;SDS011;54537;47.972;11.662;2022-07-17T05:53:59;5.47;;;2.88;;
66437;SDS011;54537;47.972;11.662;2022-07-17T05:56:27;7.15;;;2.65;;
66437;SDS011;54537;47.972;11.662;2022-07-17T05:58:53;8.18;;;2.88;;
66437;SDS011;54537;47.972;11.662;2022-07-17T06:01:20;8.15;;;2.78;;
66437;SDS011;54537;47.972;11.662;2022-07-17T06:03:46;8.70;;;2.90;;
66437;SDS011;54537;47.972;11.662;2022-07-17T06:06:12;5.15;;;2.30;;
66437;SDS011;54537;47.972;11.662;2022-07-17T06:08:38;5.53;;;2.65;;
66437;SDS011;54537;47.972;11.662;2022-07-17T06:11:05;10.27;;;2.60;;
66437;SDS011;54537;47.972;11.662;2022-07-17T06:13:33;5.90;;;2.42;;
66437;SDS011;54537;47.972;11.662;2022-07-17T06:16:00;4.10;;;2.58;;
66437;SDS011;54537;47.972;11.662;2022-07-17T06:18:26;3.50;;;2.70;;
66437;SDS011;54537;47.972;11.662;2022-07-17T06:20:52;6.43;;;2.53;;
66437;SDS011;54537;47.972;11.662;2022-07-17T06:23:19;4.70;;;2.65;;
66437;SDS011;54537;47.972;11.662;2022-07-17T06:25:45;6.80;;;2.50;;
66437;SDS011;54537;47.972;11.662;2022-07-17T06:28:11;5.57;;;2.58;;
66437;SDS011;54537;47.972;11.662;2022-07-17T06:30:39;4.70;;;2.40;;
66437;SDS011;54537;47.972;11.662;2022-07-17T06:33:05;3.40;;;2.20;;
66437;SDS011;54537;47.972;11.662;2022-07-17T06:35:31;3.53;;;2.30;;
66437;SDS011;54537;47.972;11.662;2022-07-17T06:37:59;5.43;;;2.58;;
66437;SDS011;54537;47.972;11.662;2022-07-17T06:40:25;3.97;;;2.30;;
66437;SDS011;54537;47.972;11.662;2022-07-17T06:42:51;6.97;;;2.20;;
66437;SDS011;54537;47.972;11.662;2022-07-17T06:45:18;5.88;;;2.10;;
66437;SDS011;54537;47.972;11.662;2022-07-17T06:47:46;3.10;;;2.00;;
66437;SDS011;54537;47.972;11.662;2022-07-17T06:50:12;4.10;;;1.83;;
66437;SDS011;54537;47.972;11.662;2022-07-17T06:52:38;4.90;;;2.20;;
66437;SDS011;54537;47.972;11.662;2022-07-17T06:55:05;3.33;;;1.90;;
66437;SDS011;54537;47.972;11.662;2022-07-17T06:57:31;5.30;;;2.10;;
66437;SDS011;54537;47.972;11.662;2022-07-17T06:59:58;4.82;;;2.20;;
66437;SDS011;54537;47.972;11.662;2022-07-17T07:02:24;2.83;;;1.73;;
66437;SDS011;54537;47.972;11.662;2022-07-17T07:04:51;2.85;;;1.92;;
66437;SDS011;54537;47.972;11.662;2022-07-17T07:07:18;3.58;;;2.25;;
66437;SDS011;54537;47.972;11.662;2022-07-17T07:09:44;3.45;;;1.70;;
66437;SDS011;54537;47.972;11.662;2022-07-17T07:12:10;3.53;;;1.80;;
66437;SDS011;54537;47.972;11.662;2022-07-17T07:14:37;2.60;;;1.77;;
66437;SDS011;54537;47.972;11.662;2022-07-17T07:17:03;3.85;;;2.17;;
66437;SDS011;54537;47.972;11.662;2022-07-17T07:19:30;3.78;;;2.00;;
66437;SDS011;54537;47.972;11.662;2022-07-17T07:21:58;4.15;;;2.00;;
66437;SDS011;54537;47.972;11.662;2022-07-17T07:24:24;5.43;;;2.10;;
66437;SDS011;54537;47.972;11.662;2022-07-17T07:26:50;3.28;;;1.90;;
66437;SDS011;54537;47.972;11.662;2022-07-17T07:29:17;2.60;;;1.90;;
66437;SDS011;54537;47.972;11.662;2022-07-17T07:31:43;2.60;;;1.63;;
66437;SDS011;54537;47.972;11.662;2022-07-17T07:34:09;3.40;;;1.80;;
66437;SDS011;54537;47.972;11.662;2022-07-17T07:36:35;3.03;;;1.92;;
66437;SDS011;54537;47.972;11.662;2022-07-17T07:39:03;3.95;;;1.90;;
66437;SDS011;54537;47.972;11.662;2022-07-17T07:41:30;3.13;;;1.73;;
66437;SDS011;54537;47.972;11.662;2022-07-17T07:43:56;3.05;;;1.75;;
66437;SDS011;54537;47.972;11.662;2022-07-17T07:46:22;3.63;;;1.85;;
66437;SDS011;54537;47.972;11.662;2022-07-17T07:48:49;5.00;;;1.70;;
66437;SDS011;54537;47.972;11.662;2022-07-17T07:51:16;2.72;;;1.63;;
66437;SDS011;54537;47.972;11.662;2022-07-17T07:53:42;3.17;;;1.83;;
66437;SDS011;54537;47.972;11.662;2022-07-17T07:56:10;4.55;;;1.65;;
66437;SDS011;54537;47.972;11.662;2022-07-17T07:58:36;3.05;;;1.60;;
66437;SDS011;54537;47.972;11.662;2022-07-17T08:01:02;4.55;;;1.73;;
66437;SDS011;54537;47.972;11.662;2022-07-17T08:03:29;4.63;;;1.70;;
66437;SDS011;54537;47.972;11.662;2022-07-17T08:05:55;4.82;;;1.65;;
66437;SDS011;54537;47.972;11.662;2022-07-17T08:08:21;3.40;;;1.50;;
66437;SDS011;54537;47.972;11.662;2022-07-17T08:10:47;2.97;;;1.70;;
66437;SDS011;54537;47.972;11.662;2022-07-17T08:13:15;4.22;;;1.73;;
66437;SDS011;54537;47.972;11.662;2022-07-17T08:15:42;2.42;;;1.50;;
66437;SDS011;54537;47.972;11.662;2022-07-17T08:18:08;3.72;;;1.60;;
66437;SDS011;54537;47.972;11.662;2022-07-17T08:20:34;4.22;;;1.70;;
66437;SDS011;54537;47.972;11.662;2022-07-17T08:23:01;5.38;;;1.60;;
66437;SDS011;54537;47.972;11.662;2022-07-17T08:25:27;2.83;;;1.45;;
66437;SDS011;54537;47.972;11.662;2022-07-17T08:27:53;2.55;;;1.55;;
66437;SDS011;54537;47.972;11.662;2022-07-17T08:30:21;9.30;;;1.80;;
66437;SDS011;54537;47.972;11.662;2022-07-17T08:32:47;3.55;;;1.65;;
66437;SDS011;54537;47.972;11.662;2022-07-17T08:35:14;5.03;;;1.50;;
66437;SDS011;54537;47.972;11.662;2022-07-17T08:37:44;4.03;;;1.50;;
66437;SDS011;54537;47.972;11.662;2022-07-17T08:40:15;3.70;;;1.42;;
66437;SDS011;54537;47.972;11.662;2022-07-17T08:42:41;4.25;;;1.45;;
66437;SDS011;54537;47.972;11.662;2022-07-17T08:45:08;4.35;;;1.98;;
66437;SDS011;54537;47.972;11.662;2022-07-17T08:47:36;4.38;;;1.60;;
66437;SDS011;54537;47.972;11.662;2022-07-17T08:50:03;3.50;;;1.63;;
66437;SDS011;54537;47.972;11.662;2022-07-17T08:52:29;2.95;;;1.60;;
66437;SDS011;54537;47.972;11.662;2022-07-17T08:54:56;4.18;;;1.70;;
66437;SDS011;54537;47.972;11.662;2022-07-17T08:57:23;2.95;;;1.67;;
66437;SDS011;54537;47.972;11.662;2022-07-17T08:59:49;3.55;;;1.75;;
66437;SDS011;54537;47.972;11.662;2022-07-17T09:02:15;2.83;;;1.60;;
66437;SDS011;54537;47.972;11.662;2022-07-17T09:04:51;2.13;;;1.52;;
66437;SDS011;54537;47.972;11.662;2022-07-17T09:07:18;3.40;;;1.77;;
66437;SDS011;54537;47.972;11.662;2022-07-17T09:09:48;3.08;;;1.70;;
66437;SDS011;54537;47.972;11.662;2022-07-17T09:12:15;4.65;;;1.88;;
66437;SDS011;54537;47.972;11.662;2022-07-17T09:14:41;3.58;;;1.50;;
66437;SDS011;54537;47.972;11.662;2022-07-17T09:17:09;4.32;;;1.95;;
66437;SDS011;54537;47.972;11.662;2022-07-17T09:19:36;5.07;;;2.00;;
66437;SDS011;54537;47.972;11.662;2022-07-17T09:22:08;5.18;;;2.00;;
66437;SDS011;54537;47.972;11.662;2022-07-17T09:24:42;3.28;;;1.90;;
66437;SDS011;54537;47.972;11.662;2022-07-17T09:27:08;4.07;;;1.83;;
66437;SDS011;54537;47.972;11.662;2022-07-17T09:29:35;2.65;;;1.65;;
66437;SDS011;54537;47.972;11.662;2022-07-17T09:32:16;3.47;;;1.98;;
66437;SDS011;54537;47.972;11.662;2022-07-17T09:34:43;4.30;;;1.98;;
66437;SDS011;54537;47.972;11.662;2022-07-17T09:37:11;4.40;;;1.95;;
66437;SDS011;54537;47.972;11.662;2022-07-17T09:39:38;4.35;;;2.00;;
66437;SDS011;54537;47.972;11.662;2022-07-17T09:42:04;3.88;;;1.90;;
66437;SDS011;54537;47.972;11.662;2022-07-17T09:44:31;3.35;;;1.83;;
66437;SDS011;54537;47.972;11.662;2022-07-17T09:46:57;3.13;;;1.83;;
66437;SDS011;54537;47.972;11.662;2022-07-17T09:49:25;1.85;;;1.35;;
66437;SDS011;54537;47.972;11.662;2022-07-17T09:51:52;4.22;;;1.83;;
66437;SDS011;54537;47.972;11.662;2022-07-17T09:54:20;3.35;;;1.85;;
66437;SDS011;54537;47.972;11.662;2022-07-17T09:56:48;3.35;;;1.80;;
66437;SDS011;54537;47.972;11.662;2022-07-17T09:59:15;4.15;;;2.00;;
66437;SDS011;54537;47.972;11.662;2022-07-17T10:01:43;3.25;;;1.70;;
66437;SDS011;54537;47.972;11.662;2022-07-17T10:04:10;2.75;;;1.60;;
66437;SDS011;54537;47.972;11.662;2022-07-17T10:06:37;3.70;;;1.80;;
66437;SDS011;54537;47.972;11.662;2022-07-17T10:09:04;5.38;;;2.00;;
66437;SDS011;54537;47.972;11.662;2022-07-17T10:11:32;4.10;;;1.70;;
66437;SDS011;54537;47.972;11.662;2022-07-17T10:14:01;3.75;;;1.80;;
66437;SDS011;54537;47.972;11.662;2022-07-17T10:16:35;3.58;;;1.88;;
66437;SDS011;54537;47.972;11.662;2022-07-17T10:19:03;3.17;;;1.83;;
66437;SDS011;54537;47.972;11.662;2022-07-17T10:21:40;3.63;;;1.88;;
66437;SDS011;54537;47.972;11.662;2022-07-17T10:26:44;2.80;;;1.70;;
66437;SDS011;54537;47.972;11.662;2022-07-17T10:29:29;4.47;;;2.00;;
66437;SDS011;54537;47.972;11.662;2022-07-17T10:31:57;5.07;;;2.00;;
66437;SDS011;54537;47.972;11.662;2022-07-17T10:34:35;3.65;;;1.70;;
66437;SDS011;54537;47.972;11.662;2022-07-17T10:37:02;4.93;;;2.30;;
66437;SDS011;54537;47.972;11.662;2022-07-17T10:39:28;4.82;;;2.40;;
66437;SDS011;54537;47.972;11.662;2022-07-17T10:41:57;5.53;;;2.42;;
66437;SDS011;54537;47.972;11.662;2022-07-17T10:44:24;7.90;;;3.08;;
66437;SDS011;54537;47.972;11.662;2022-07-17T10:46:51;5.55;;;1.90;;
66437;SDS011;54537;47.972;11.662;2022-07-17T10:49:18;3.42;;;2.00;;
66437;SDS011;54537;47.972;11.662;2022-07-17T10:51:44;6.65;;;2.10;;
66437;SDS011;54537;47.972;11.662;2022-07-17T10:54:11;4.70;;;2.00;;
66437;SDS011;54537;47.972;11.662;2022-07-17T10:56:39;4.57;;;2.00;;
66437;SDS011;54537;47.972;11.662;2022-07-17T10:59:06;4.82;;;2.20;;
66437;SDS011;54537;47.972;11.662;2022-07-17T11:01:33;3.78;;;2.20;;
66437;SDS011;54537;47.972;11.662;2022-07-17T11:03:59;4.60;;;2.13;;
66437;SDS011;54537;47.972;11.662;2022-07-17T11:06:30;2.67;;;1.90;;
66437;SDS011;54537;47.972;11.662;2022-07-17T11:11:23;4.40;;;2.28;;
66437;SDS011;54537;47.972;11.662;2022-07-17T11:14:07;3.92;;;2.00;;
66437;SDS011;54537;47.972;11.662;2022-07-17T11:16:34;3.40;;;2.22;;
66437;SDS011;54537;47.972;11.662;2022-07-17T11:19:00;4.68;;;2.20;;
66437;SDS011;54537;47.972;11.662;2022-07-17T11:21:27;4.53;;;1.70;;
66437;SDS011;54537;47.972;11.662;2022-07-17T11:23:54;5.90;;;1.80;;
66437;SDS011;54537;47.972;11.662;2022-07-17T11:26:21;2.70;;;1.70;;
66437;SDS011;54537;47.972;11.662;2022-07-17T11:28:47;5.07;;;2.20;;
66437;SDS011;54537;47.972;11.662;2022-07-17T11:31:19;4.47;;;1.90;;
66437;SDS011;54537;47.972;11.662;2022-07-17T11:33:50;3.58;;;2.08;;
66437;SDS011;54537;47.972;11.662;2022-07-17T11:36:24;4.75;;;1.88;;
66437;SDS011;54537;47.972;11.662;2022-07-17T11:38:51;4.00;;;2.00;;
66437;SDS011;54537;47.972;11.662;2022-07-17T11:41:17;3.45;;;1.88;;
66437;SDS011;54537;47.972;11.662;2022-07-17T11:43:44;3.90;;;1.73;;
66437;SDS011;54537;47.972;11.662;2022-07-17T11:46:10;3.25;;;1.73;;
66437;SDS011;54537;47.972;11.662;2022-07-17T11:48:38;2.58;;;1.67;;
66437;SDS011;54537;47.972;11.662;2022-07-17T11:51:06;3.85;;;1.83;;
66437;SDS011;54537;47.972;11.662;2022-07-17T11:53:33;3.80;;;1.75;;
66437;SDS011;54537;47.972;11.662;2022-07-17T11:56:00;3.05;;;1.85;;
66437;SDS011;54537;47.972;11.662;2022-07-17T11:58:27;2.28;;;1.60;;
66437;SDS011;54537;47.972;11.662;2022-07-17T12:01:00;3.38;;;2.00;;
66437;SDS011;54537;47.972;11.662;2022-07-17T12:03:27;4.72;;;1.80;;
66437;SDS011;54537;47.972;11.662;2022-07-17T12:05:54;4.32;;;2.08;;
66437;SDS011;54537;47.972;11.662;2022-07-17T12:08:21;2.85;;;1.90;;
66437;SDS011;54537;47.972;11.662;2022-07-17T12:10:47;3.47;;;1.85;;
66437;SDS011;54537;47.972;11.662;2022-07-17T12:13:14;3.17;;;1.88;;
66437;SDS011;54537;47.972;11.662;2022-07-17T12:15:40;5.75;;;2.00;;
66437;SDS011;54537;47.972;11.662;2022-07-17T12:18:18;6.13;;;2.35;;
66437;SDS011;54537;47.972;11.662;2022-07-17T12:20:46;3.08;;;1.80;;
66437;SDS011;54537;47.972;11.662;2022-07-17T12:23:26;2.45;;;1.50;;
66437;SDS011;54537;47.972;11.662;2022-07-17T12:26:02;3.60;;;1.98;;
66437;SDS011;54537;47.972;11.662;2022-07-17T12:28:28;2.65;;;1.83;;
66437;SDS011;54537;47.972;11.662;2022-07-17T12:30:55;2.53;;;1.92;;
66437;SDS011;54537;47.972;11.662;2022-07-17T12:33:21;4.28;;;1.83;;
66437;SDS011;54537;47.972;11.662;2022-07-17T12:35:47;3.03;;;1.90;;
66437;SDS011;54537;47.972;11.662;2022-07-17T12:38:14;3.58;;;2.03;;
66437;SDS011;54537;47.972;11.662;2022-07-17T12:40:41;5.40;;;2.10;;
66437;SDS011;54537;47.972;11.662;2022-07-17T12:43:08;5.45;;;1.83;;
66437;SDS011;54537;47.972;11.662;2022-07-17T12:45:34;5.10;;;1.85;;
66437;SDS011;54537;47.972;11.662;2022-07-17T12:48:01;5.65;;;3.08;;
66437;SDS011;54537;47.972;11.662;2022-07-17T12:50:27;4.13;;;2.25;;
66437;SDS011;54537;47.972;11.662;2022-07-17T12:52:53;5.43;;;2.20;;
66437;SDS011;54537;47.972;11.662;2022-07-17T12:55:20;3.72;;;2.22;;
66437;SDS011;54537;47.972;11.662;2022-07-17T12:57:47;2.95;;;2.03;;
66437;SDS011;54537;47.972;11.662;2022-07-17T13:00:14;4.38;;;2.20;;
66437;SDS011;54537;47.972;11.662;2022-07-17T13:02:40;5.47;;;1.90;;
66437;SDS011;54537;47.972;11.662;2022-07-17T13:05:06;3.00;;;1.90;;
66437;SDS011;54537;47.972;11.662;2022-07-17T13:07:33;4.53;;;2.30;;
66437;SDS011;54537;47.972;11.662;2022-07-17T13:09:59;4.20;;;2.22;;
66437;SDS011;54537;47.972;11.662;2022-07-17T13:12:25;3.95;;;2.00;;
66437;SDS011;54537;47.972;11.662;2022-07-17T13:14:53;5.70;;;2.10;;
66437;SDS011;54537;47.972;11.662;2022-07-17T13:17:19;3.47;;;1.90;;
66437;SDS011;54537;47.972;11.662;2022-07-17T13:19:45;3.00;;;1.95;;
66437;SDS011;54537;47.972;11.662;2022-07-17T13:22:12;3.35;;;2.22;;
66437;SDS011;54537;47.972;11.662;2022-07-17T13:24:38;4.03;;;2.33;;
66437;SDS011;54537;47.972;11.662;2022-07-17T13:27:04;3.90;;;1.92;;
66437;SDS011;54537;47.972;11.662;2022-07-17T13:29:31;3.78;;;2.10;;
66437;SDS011;54537;47.972;11.662;2022-07-17T13:31:58;3.78;;;1.98;;
66437;SDS011;54537;47.972;11.662;2022-07-17T13:34:25;3.63;;;2.22;;
66437;SDS011;54537;47.972;11.662;2022-07-17T13:36:51;5.22;;;2.08;;
66437;SDS011;54537;47.972;11.662;2022-07-17T13:39:17;4.00;;;2.10;;
66437;SDS011;54537;47.972;11.662;2022-07-17T13:41:43;5.38;;;2.13;;
66437;SDS011;54537;47.972;11.662;2022-07-17T13:44:10;3.72;;;2.25;;
66437;SDS011;54537;47.972;11.662;2022-07-17T13:46:36;5.85;;;2.53;;
66437;SDS011;54537;47.972;11.662;2022-07-17T13:49:04;4.25;;;2.30;;
66437;SDS011;54537;47.972;11.662;2022-07-17T13:51:30;2.75;;;2.10;;
66437;SDS011;54537;47.972;11.662;2022-07-17T13:53:57;4.30;;;2.30;;
66437;SDS011;54537;47.972;11.662;2022-07-17T13:56:23;3.67;;;2.13;;
66437;SDS011;54537;47.972;11.662;2022-07-17T13:58:50;4.65;;;2.47;;
66437;SDS011;54537;47.972;11.662;2022-07-17T14:01:16;3.15;;;2.10;;
66437;SDS011;54537;47.972;11.662;2022-07-17T14:03:42;2.80;;;2.05;;
66437;SDS011;54537;47.972;11.662;2022-07-17T14:06:10;4.45;;;2.10;;
66437;SDS011;54537;47.972;11.662;2022-07-17T14:08:36;3.83;;;2.22;;
66437;SDS011;54537;47.972;11.662;2022-07-17T14:11:03;4.25;;;2.30;;
66437;SDS011;54537;47.972;11.662;2022-07-17T14:13:30;5.72;;;2.45;;
66437;SDS011;54537;47.972;11.662;2022-07-17T14:15:56;5.30;;;2.33;;
66437;SDS011;54537;47.972;11.662;2022-07-17T14:18:22;3.28;;;2.28;;
66437;SDS011;54537;47.972;11.662;2022-07-17T14:20:48;3.25;;;2.17;;
66437;SDS011;54537;47.972;11.662;2022-07-17T14:23:16;4.82;;;2.20;;
66437;SDS011;54537;47.972;11.662;2022-07-17T14:25:42;4.53;;;2.33;;
66437;SDS011;54537;47.972;11.662;2022-07-17T14:28:09;4.45;;;2.25;;
66437;SDS011;54537;47.972;11.662;2022-07-17T14:30:36;4.18;;;2.03;;
66437;SDS011;54537;47.972;11.662;2022-07-17T14:33:02;6.93;;;2.15;;
66437;SDS011;54537;47.972;11.662;2022-07-17T14:35:28;5.80;;;1.95;;
66437;SDS011;54537;47.972;11.662;2022-07-17T14:37:56;5.03;;;2.53;;